Time;durP1;ratioP1;P1;durP2;ratioP2;P2;SDS_P1;SDS_P2;PMS_P1;PMS_P2;Temp;Humidity;BMP_temperature;BMP_pressure;BME280_temperature;BME280_humidity;BME280_pressure;Samples;Min_cycle;Max_cycle;Signal;HPM_P1;HPM_P2
2022/08/17 00:01:57;;;;;;;6.03;5.40;;;;;;;25.53;55.67;99533.53;5084658;28;20422;-65
2022/08/17 00:04:22;;;;;;;7.20;5.70;;;;;;;25.51;55.69;99538.97;5073536;28;20178;-65
2022/08/17 00:06:48;;;;;;;7.30;5.57;;;;;;;25.51;55.34;99538.13;5073198;28;20183;-65
2022/08/17 00:09:13;;;;;;;6.00;5.30;;;;;;;25.50;55.42;99536.50;5089898;28;20173;-65
2022/08/17 00:11:40;;;;;;;6.47;5.50;;;;;;;25.50;55.14;99533.63;5090674;28;20218;-65
2022/08/17 00:14:08;;;;;;;7.67;5.97;;;;;;;25.50;55.41;99534.44;5092498;28;20515;-65
2022/08/17 00:16:35;;;;;;;6.13;5.53;;;;;;;25.49;55.06;99523.31;5088782;28;20435;-65
2022/08/17 00:19:04;;;;;;;8.10;5.30;;;;;;;25.48;55.55;99525.38;5092437;28;20416;-65
2022/08/17 00:21:30;;;;;;;6.70;5.73;;;;;;;25.46;55.00;99527.09;5087302;28;20418;-65
2022/08/17 00:23:55;;;;;;;6.73;5.20;;;;;;;25.44;55.69;99530.41;5070572;28;20935;-66
2022/08/17 00:26:21;;;;;;;7.80;5.23;;;;;;;25.43;55.18;99525.91;5070379;28;20680;-65
2022/08/17 00:28:47;;;;;;;6.90;5.17;;;;;;;25.45;54.89;99528.34;5068926;28;20183;-65
2022/08/17 00:31:12;;;;;;;7.97;5.77;;;;;;;25.42;55.08;99527.19;5070965;28;20448;-65
2022/08/17 00:33:39;;;;;;;11.87;5.97;;;;;;;25.44;54.75;99524.63;5069012;28;20205;-65
2022/08/17 00:36:06;;;;;;;6.27;5.50;;;;;;;25.44;55.02;99527.53;5069732;28;20179;-65
2022/08/17 00:38:31;;;;;;;7.63;5.50;;;;;;;25.45;55.15;99532.06;5071399;28;20413;-65
2022/08/17 00:41:00;;;;;;;6.53;5.77;;;;;;;25.47;54.76;99522.94;5053854;28;20425;-65
2022/08/17 00:43:34;;;;;;;8.10;5.00;;;;;;;25.47;54.91;99525.81;5079453;28;20179;-65
2022/08/17 00:46:01;;;;;;;6.77;5.43;;;;;;;25.47;55.02;99522.94;5081925;28;20869;-65
2022/08/17 00:48:27;;;;;;;7.30;5.60;;;;;;;25.47;55.04;99534.50;5092076;28;20481;-65
2022/08/17 00:51:21;;;;;;;8.10;6.20;;;;;;;25.46;54.75;99522.13;5081221;28;20939;-65
2022/08/17 00:53:50;;;;;;;7.30;5.10;;;;;;;25.46;54.90;99539.47;5070266;28;20205;-65
2022/08/17 00:56:19;;;;;;;7.80;6.20;;;;;;;25.46;54.74;99533.69;5066476;28;20919;-65
2022/08/17 00:58:45;;;;;;;6.50;4.77;;;;;;;25.46;54.55;99525.03;5056168;28;20424;-65
2022/08/17 01:01:11;;;;;;;6.20;5.20;;;;;;;25.46;54.50;99527.09;5070636;28;20418;-65
2022/08/17 01:03:36;;;;;;;6.00;5.10;;;;;;;25.45;54.75;99529.19;5079712;28;20183;-65
2022/08/17 01:06:02;;;;;;;8.37;6.03;;;;;;;25.45;54.34;99529.19;5088981;28;20179;-65
2022/08/17 01:08:28;;;;;;;6.73;4.87;;;;;;;25.44;54.46;99538.31;5074883;28;20214;-65
2022/08/17 01:10:55;;;;;;;8.30;5.90;;;;;;;25.43;54.25;99537.47;5053046;28;20188;-65
2022/08/17 01:13:21;;;;;;;6.47;5.30;;;;;;;25.45;54.35;99539.91;5070183;28;20477;-65
2022/08/17 01:15:52;;;;;;;6.60;5.57;;;;;;;25.45;54.28;99537.03;5071350;28;20413;-65
2022/08/17 01:18:18;;;;;;;7.03;5.53;;;;;;;25.44;54.46;99527.53;5053711;28;20401;-65
2022/08/17 01:20:51;;;;;;;7.80;5.20;;;;;;;25.46;54.50;99527.09;5070391;28;20421;-65
2022/08/17 01:23:19;;;;;;;7.40;6.07;;;;;;;25.45;54.67;99532.06;5052452;28;20626;-65
2022/08/17 01:25:45;;;;;;;6.73;5.70;;;;;;;25.45;54.62;99537.03;5068356;28;20413;-65
2022/08/17 01:28:10;;;;;;;7.50;5.60;;;;;;;25.44;54.25;99541.19;5069973;28;20428;-65
2022/08/17 01:30:36;;;;;;;6.27;5.50;;;;;;;25.44;54.29;99536.19;5077918;28;20171;-65
2022/08/17 01:33:02;;;;;;;5.33;4.80;;;;;;;25.43;54.45;99531.69;5089196;28;20206;-65
2022/08/17 01:35:27;;;;;;;11.77;5.77;;;;;;;25.44;54.51;99533.31;5091273;28;20174;-65
2022/08/17 01:37:53;;;;;;;9.93;5.60;;;;;;;25.43;54.63;99537.47;5092321;28;20166;-65
2022/08/17 01:40:30;;;;;;;7.47;5.07;;;;;;;25.42;54.54;99535.84;5091532;28;20186;-65
2022/08/17 01:42:57;;;;;;;6.30;5.27;;;;;;;25.44;54.17;99541.19;5074094;28;20166;-65
2022/08/17 01:45:26;;;;;;;6.50;5.60;;;;;;;25.43;54.70;99546.16;5073910;28;20416;-65
2022/08/17 01:47:52;;;;;;;6.70;5.20;;;;;;;25.43;54.19;99543.25;5090414;28;20499;-65
2022/08/17 01:50:26;;;;;;;8.90;5.57;;;;;;;25.43;54.33;99551.13;5090259;28;20408;-65
2022/08/17 01:52:54;;;;;;;7.27;5.37;;;;;;;25.44;54.29;99549.84;5090186;28;20452;-65
2022/08/17 01:55:22;;;;;;;8.13;6.03;;;;;;;25.42;54.17;99558.97;5086601;28;20443;-65
2022/08/17 01:57:47;;;;;;;6.83;5.40;;;;;;;25.42;54.39;99561.03;5069605;28;20915;-65
2022/08/17 02:00:13;;;;;;;6.07;5.27;;;;;;;25.42;54.44;99558.97;5070826;28;20409;-65
2022/08/17 02:02:39;;;;;;;6.93;5.47;;;;;;;25.42;54.25;99561.03;5070839;28;20248;-65
2022/08/17 02:05:05;;;;;;;8.90;4.90;;;;;;;25.41;54.26;99556.53;5071038;28;20698;-65
2022/08/17 02:07:30;;;;;;;7.37;5.33;;;;;;;25.40;54.02;99567.28;5070829;28;20202;-65
2022/08/17 02:09:55;;;;;;;6.17;5.30;;;;;;;25.40;54.17;99578.84;5070914;28;20469;-65
2022/08/17 02:12:21;;;;;;;9.10;5.60;;;;;;;25.40;54.46;99580.91;5070982;28;20234;-65
2022/08/17 02:14:47;;;;;;;7.47;5.63;;;;;;;25.40;54.08;99601.97;5076600;28;20569;-65
2022/08/17 02:17:29;;;;;;;7.33;5.83;;;;;;;25.38;54.71;99647.03;5089325;28;20456;-65
2022/08/17 02:19:55;;;;;;;7.20;6.50;;;;;;;24.97;55.41;99638.69;5078003;28;20634;-65
2022/08/17 02:22:21;;;;;;;8.53;6.77;;;;;;;25.11;55.02;99632.66;5074370;28;20432;-65
2022/08/17 02:24:46;;;;;;;8.40;6.23;;;;;;;25.19;55.19;99642.81;5074385;28;20182;-65
2022/08/17 02:27:11;;;;;;;8.10;6.10;;;;;;;25.22;54.76;99646.88;5073202;28;20417;-65
2022/08/17 02:29:37;;;;;;;10.23;7.30;;;;;;;25.22;55.09;99678.66;5076876;28;20216;-65
2022/08/17 02:32:03;;;;;;;7.70;6.03;;;;;;;25.20;55.09;99658.91;5080330;28;20194;-65
2022/08/17 02:34:30;;;;;;;7.30;5.83;;;;;;;25.22;55.15;99661.31;5091627;28;20299;-65
2022/08/17 02:36:55;;;;;;;7.63;6.37;;;;;;;25.20;54.68;99670.47;5085211;28;20421;-65
2022/08/17 02:39:21;;;;;;;7.50;5.47;;;;;;;25.22;54.71;99655.53;5072393;28;20420;-65
2022/08/17 02:41:46;;;;;;;9.33;6.27;;;;;;;25.24;54.74;99658.81;5090069;28;20634;-65
2022/08/17 02:44:12;;;;;;;6.90;6.17;;;;;;;25.26;54.71;99650.56;5092542;28;20515;-65
2022/08/17 02:46:37;;;;;;;9.10;6.30;;;;;;;25.28;54.51;99648.84;5079225;28;20692;-65
2022/08/17 02:49:03;;;;;;;9.03;6.77;;;;;;;25.28;54.53;99651.75;5073579;28;20616;-65
2022/08/17 02:51:29;;;;;;;8.90;5.53;;;;;;;25.31;54.73;99655.81;5072530;28;20260;-65
2022/08/17 02:53:54;;;;;;;7.07;6.20;;;;;;;25.31;54.81;99659.53;5073990;28;20425;-65
2022/08/17 02:56:19;;;;;;;7.10;6.40;;;;;;;25.33;54.84;99653.31;5072515;28;20167;-65
2022/08/17 02:58:45;;;;;;;6.93;6.23;;;;;;;25.33;54.89;99657.00;5073726;28;20248;-65
2022/08/17 03:01:11;;;;;;;6.80;5.93;;;;;;;25.33;54.88;99665.69;5073824;28;20646;-65
2022/08/17 03:03:37;;;;;;;9.90;5.80;;;;;;;25.33;54.81;99665.69;5092622;28;20228;-65
2022/08/17 03:06:02;;;;;;;7.67;6.17;;;;;;;25.32;54.73;99669.84;5092109;28;20413;-65
2022/08/17 03:08:28;;;;;;;8.17;6.37;;;;;;;25.33;54.73;99674.34;5093922;28;20652;-65
2022/08/17 03:10:54;;;;;;;9.50;6.30;;;;;;;25.34;54.99;99686.72;5093576;28;20261;-65
2022/08/17 03:13:19;;;;;;;6.60;5.70;;;;;;;25.33;54.08;99671.47;5093356;28;20591;-65
2022/08/17 03:15:45;;;;;;;8.23;6.40;;;;;;;25.32;54.46;99678.50;5090833;28;20645;-65
2022/08/17 03:18:12;;;;;;;10.50;6.33;;;;;;;25.32;54.37;99675.63;5092216;28;20174;-65
2022/08/17 03:20:37;;;;;;;7.47;6.63;;;;;;;25.31;54.75;99682.66;5091289;28;20171;-65
2022/08/17 03:23:03;;;;;;;8.10;6.23;;;;;;;25.31;54.42;99685.53;5090776;28;20409;-65
2022/08/17 03:25:37;;;;;;;6.53;5.33;;;;;;;25.29;54.76;99676.47;5092868;28;20178;-65
2022/08/17 03:28:03;;;;;;;8.60;5.77;;;;;;;25.32;54.84;99686.34;5075073;28;20162;-65
2022/08/17 03:30:29;;;;;;;6.87;6.00;;;;;;;25.31;54.19;99678.94;5093460;28;20416;-65
2022/08/17 03:32:59;;;;;;;9.63;6.13;;;;;;;25.30;54.27;99677.31;5092483;28;20460;-65
2022/08/17 03:35:26;;;;;;;7.47;6.70;;;;;;;25.30;54.68;99680.19;5092348;28;20598;-65
2022/08/17 03:37:52;;;;;;;7.77;6.70;;;;;;;25.29;54.41;99673.59;5093214;28;20835;-65
2022/08/17 03:40:19;;;;;;;8.30;6.10;;;;;;;25.29;54.98;99672.78;5093467;28;20491;-65
2022/08/17 03:42:44;;;;;;;8.37;6.40;;;;;;;25.30;54.90;99674.41;5091524;28;20186;-65
2022/08/17 03:45:15;;;;;;;13.00;7.00;;;;;;;25.31;54.56;99676.03;5092918;28;20420;-65
2022/08/17 03:58:45;;;;;;;8.40;6.37;;;;;;;25.29;54.54;99673.59;5076277;28;20425;-65
2022/08/17 04:01:10;;;;;;;8.80;6.30;;;;;;;25.28;55.04;99677.75;5071149;28;20924;-65
2022/08/17 04:03:36;;;;;;;8.23;6.67;;;;;;;25.29;54.96;99681.47;5072250;28;20175;-65
2022/08/17 04:06:01;;;;;;;6.80;6.10;;;;;;;25.28;55.48;99686.41;5072578;28;20179;-65
2022/08/17 04:08:28;;;;;;;8.83;6.17;;;;;;;25.29;54.78;99681.47;5072567;28;20167;-65
2022/08/17 04:10:54;;;;;;;7.37;6.50;;;;;;;25.30;54.89;99685.97;5072117;28;20193;-65
2022/08/17 04:13:20;;;;;;;8.00;6.50;;;;;;;25.29;55.16;99690.13;5072183;28;20610;-65
2022/08/17 04:15:47;;;;;;;7.37;6.60;;;;;;;25.30;54.93;99700.44;5072459;28;20414;-65
2022/08/17 04:18:14;;;;;;;9.60;7.40;;;;;;;25.28;55.56;99695.09;5072271;28;20261;-65
2022/08/17 04:20:39;;;;;;;7.90;6.80;;;;;;;25.25;55.15;99693.09;5091937;28;20424;-65
2022/08/17 04:23:08;;;;;;;8.87;6.63;;;;;;;25.24;55.35;99687.72;5092365;28;20416;-65
2022/08/17 04:25:35;;;;;;;8.47;6.53;;;;;;;25.24;55.42;99681.94;5092547;28;20550;-65
2022/08/17 04:28:00;;;;;;;9.60;7.63;;;;;;;25.24;55.25;99676.97;5089031;28;20429;-65
2022/08/17 04:30:28;;;;;;;9.97;6.97;;;;;;;25.24;55.68;99688.53;5070667;28;20448;-65
2022/08/17 04:32:55;;;;;;;9.83;6.67;;;;;;;25.25;55.28;99698.88;5078560;28;20196;-65
2022/08/17 04:35:22;;;;;;;10.53;7.00;;;;;;;25.21;55.95;99700.97;5092291;28;20421;-65
2022/08/17 04:37:48;;;;;;;8.03;7.10;;;;;;;25.19;55.71;99700.59;5083435;28;20447;-65
2022/08/17 04:43:12;;;;;;;9.70;6.60;;;;;;;25.20;55.71;99682.03;5068946;28;20194;-65
2022/08/17 04:45:39;;;;;;;13.43;7.47;;;;;;;25.21;55.38;99677.03;5074755;28;20892;-65
2022/08/17 04:48:04;;;;;;;10.87;7.90;;;;;;;25.22;55.76;99684.44;5088667;28;20863;-65
2022/08/17 04:50:30;;;;;;;8.60;7.33;;;;;;;25.20;55.60;99705.13;5091914;28;20423;-65
2022/08/17 04:52:55;;;;;;;10.33;7.17;;;;;;;25.19;55.93;99702.69;5090590;28;20202;-65
2022/08/17 04:55:21;;;;;;;10.00;6.60;;;;;;;25.19;55.45;99688.22;5091929;28;20232;-65
2022/08/17 04:57:46;;;;;;;10.80;6.93;;;;;;;25.19;55.50;99683.25;5090049;28;20182;-65
2022/08/17 05:00:12;;;;;;;9.10;6.50;;;;;;;25.22;55.80;99667.94;5090352;28;20178;-65
2022/08/17 05:02:45;;;;;;;8.30;7.30;;;;;;;25.24;55.63;99664.59;5090229;28;20185;-65
2022/08/17 05:05:11;;;;;;;9.23;7.20;;;;;;;25.24;55.66;99676.97;5089812;28;20249;-65
2022/08/17 05:07:36;;;;;;;7.57;6.60;;;;;;;25.24;55.39;99676.97;5089930;28;20419;-65
2022/08/17 05:10:02;;;;;;;9.53;7.00;;;;;;;25.24;55.70;99679.84;5089718;28;20178;-65
2022/08/17 05:12:27;;;;;;;7.77;6.40;;;;;;;25.25;55.20;99684.44;5087976;28;20237;-65
2022/08/17 05:14:53;;;;;;;7.30;6.00;;;;;;;25.25;55.69;99677.78;5090852;28;20211;-65
2022/08/17 05:17:18;;;;;;;9.00;6.70;;;;;;;25.26;55.65;99667.88;5089500;28;20182;-65
2022/08/17 05:19:43;;;;;;;6.60;6.00;;;;;;;25.25;55.25;99655.53;5091471;28;20175;-65
2022/08/17 05:22:09;;;;;;;12.07;7.10;;;;;;;25.25;55.40;99678.66;5091383;28;20178;-65
2022/08/17 05:24:35;;;;;;;10.73;6.27;;;;;;;25.23;55.72;99686.09;5089589;28;20585;-65
2022/08/17 05:27:00;;;;;;;7.90;7.10;;;;;;;25.21;56.00;99695.19;5090457;28;20284;-65
2022/08/17 05:29:26;;;;;;;11.20;7.97;;;;;;;25.21;56.36;99694.38;5072555;28;20420;-65
2022/08/17 05:31:52;;;;;;;9.00;7.23;;;;;;;25.20;56.60;99689.84;5090628;28;20562;-65
2022/08/17 05:34:18;;;;;;;10.00;7.97;;;;;;;25.18;56.19;99667.19;5089448;28;20174;-65
2022/08/17 05:36:44;;;;;;;10.83;6.87;;;;;;;25.19;56.62;99668.00;5090663;28;20427;-65
2022/08/17 05:39:10;;;;;;;11.63;7.13;;;;;;;25.19;56.56;99676.66;5089821;28;20182;-65
2022/08/17 05:41:35;;;;;;;7.17;6.47;;;;;;;25.19;56.97;99674.59;5090270;28;20261;-65
2022/08/17 05:44:01;;;;;;;10.37;7.73;;;;;;;25.19;56.80;99680.34;5088481;28;20415;-65
2022/08/17 05:46:28;;;;;;;9.40;6.70;;;;;;;25.20;56.87;99684.91;5088731;28;20181;-65
2022/08/17 05:49:06;;;;;;;9.93;7.30;;;;;;;25.22;56.66;99691.06;5087702;28;20205;-65
2022/08/17 05:51:54;;;;;;;14.40;7.13;;;;;;;25.22;56.49;99688.16;5088532;28;20513;-65
2022/08/17 05:54:22;;;;;;;8.70;6.90;;;;;;;25.22;56.85;99696.81;5089975;28;20532;-65
2022/08/17 05:57:14;;;;;;;9.60;6.80;;;;;;;25.22;56.84;99685.28;5075879;28;20811;-65
2022/08/17 06:00:00;;;;;;;9.13;7.47;;;;;;;25.21;57.41;99705.94;5072968;28;20405;-65
2022/08/17 06:02:25;;;;;;;8.93;6.97;;;;;;;25.17;57.14;99706.00;5072983;28;20432;-65
2022/08/17 06:05:24;;;;;;;9.80;7.17;;;;;;;25.17;57.61;99723.34;5073996;28;20473;-65
2022/08/17 06:08:08;;;;;;;11.80;8.10;;;;;;;25.13;57.90;99711.03;5065584;28;20666;-65
2022/08/17 06:10:37;;;;;;;8.50;7.60;;;;;;;25.15;57.75;99716.38;5055953;28;20498;-65
2022/08/17 06:13:06;;;;;;;8.50;7.00;;;;;;;25.11;57.61;99710.66;5081333;28;20479;-65
2022/08/17 06:15:40;;;;;;;9.50;6.60;;;;;;;25.15;57.73;99708.53;5094409;28;20934;-65
2022/08/17 06:18:07;;;;;;;9.40;8.27;;;;;;;24.41;62.03;99699.41;5073050;28;20455;-65
2022/08/17 06:20:46;;;;;;;12.47;7.67;;;;;;;24.85;61.24;99699.97;5073370;28;20471;-65
2022/08/17 06:23:17;;;;;;;14.10;9.63;;;;;;;25.50;62.18;99701.28;5063032;28;20408;-65
2022/08/17 06:25:48;;;;;;;13.67;10.60;;;;;;;25.54;62.38;99690.47;5091210;28;20485;-65
2022/08/17 06:28:18;;;;;;;14.60;9.63;;;;;;;25.29;62.05;99684.34;5085826;28;20440;-65
2022/08/17 06:30:55;;;;;;;12.77;7.60;;;;;;;24.98;63.79;99674.97;5075324;28;20958;-67
2022/08/17 06:33:22;;;;;;;9.93;7.20;;;;;;;24.99;63.14;99652.69;5067516;28;20567;-67
2022/08/17 06:35:55;;;;;;;10.70;6.73;;;;;;;25.24;62.41;99648.06;5075763;28;20436;-66
2022/08/17 06:38:27;;;;;;;10.20;6.50;;;;;;;25.25;60.63;99661.31;5079665;28;20466;-66
2022/08/17 06:40:56;;;;;;;11.93;7.50;;;;;;;24.79;62.25;99683.59;5077130;28;20916;-65
2022/08/17 06:43:55;;;;;;;11.50;6.17;;;;;;;24.56;63.74;99677.75;5080024;28;20888;-65
2022/08/17 06:46:21;;;;;;;8.30;6.40;;;;;;;24.25;63.67;99677.00;5078102;28;20437;-65
2022/08/17 06:49:10;;;;;;;7.97;5.67;;;;;;;24.37;64.26;99676.41;5079820;28;20443;-66
2022/08/17 06:51:45;;;;;;;10.00;6.23;;;;;;;24.09;63.93;99679.69;5071123;28;20222;-66
2022/08/17 06:54:19;;;;;;;7.47;6.30;;;;;;;24.05;64.55;99657.94;5076946;28;20903;-66
2022/08/17 06:56:49;;;;;;;7.87;6.70;;;;;;;24.54;64.52;99632.00;5074678;28;20463;-66
2022/08/17 06:59:17;;;;;;;13.40;8.23;;;;;;;24.71;63.40;99618.53;5075821;28;20932;-65
2022/08/17 07:01:44;;;;;;;8.07;7.17;;;;;;;24.13;65.05;99610.44;5075998;28;20553;-65
2022/08/17 07:04:10;;;;;;;10.80;6.17;;;;;;;24.21;65.33;99606.16;5084450;28;20489;-65
2022/08/17 07:07:00;;;;;;;11.17;5.60;;;;;;;23.97;65.64;99601.59;5076048;28;20923;-65
2022/08/17 07:09:30;;;;;;;7.40;5.57;;;;;;;24.07;65.12;99601.44;5069959;28;20452;-65
2022/08/17 07:11:59;;;;;;;8.10;5.33;;;;;;;24.03;65.71;99605.66;5078094;28;20481;-65
2022/08/17 07:14:35;;;;;;;5.53;4.47;;;;;;;23.93;65.74;99586.44;5080455;28;20521;-65
2022/08/17 07:17:02;;;;;;;6.90;4.13;;;;;;;23.57;66.27;99577.44;5076372;28;20451;-65
2022/08/17 07:19:30;;;;;;;5.97;4.30;;;;;;;24.10;65.36;99603.47;5078042;28;20951;-65
2022/08/17 07:22:12;;;;;;;5.80;4.33;;;;;;;24.04;63.95;99619.59;5076251;28;20783;-65
2022/08/17 07:24:58;;;;;;;7.67;4.43;;;;;;;24.01;63.62;99613.91;5076830;28;20449;-65
2022/08/17 07:27:30;;;;;;;5.87;3.90;;;;;;;23.89;64.52;99600.88;5078577;28;20427;-65
2022/08/17 07:30:08;;;;;;;6.80;4.47;;;;;;;24.15;63.65;99605.88;5081493;28;20445;-65
2022/08/17 07:32:44;;;;;;;7.60;4.10;;;;;;;24.24;63.18;99599.53;5082186;28;20766;-65
2022/08/17 07:35:14;;;;;;;7.93;4.50;;;;;;;24.43;62.67;99607.47;5076229;28;20423;-65
2022/08/17 07:37:41;;;;;;;6.83;4.30;;;;;;;24.48;63.23;99604.88;5081893;28;20436;-65
2022/08/17 07:40:27;;;;;;;5.40;4.10;;;;;;;24.58;64.41;99612.59;5076320;28;20444;-66
2022/08/17 07:43:16;;;;;;;6.97;4.63;;;;;;;24.44;64.91;99607.00;5073375;28;20433;-66
2022/08/17 07:49:08;;;;;;;5.30;4.30;;;;;;;23.60;66.82;99587.28;5085585;28;20435;-65
2022/08/17 07:51:39;;;;;;;6.73;4.27;;;;;;;23.98;65.09;99592.53;5083408;28;20941;-65
2022/08/17 07:54:13;;;;;;;5.57;3.40;;;;;;;24.20;64.59;99611.16;5085045;28;20432;-63
2022/08/17 07:56:42;;;;;;;7.00;4.13;;;;;;;24.60;64.33;99624.53;5073385;28;20443;-66
2022/08/17 07:59:14;;;;;;;8.27;3.43;;;;;;;24.35;63.40;99635.63;5088867;28;20432;-65
2022/08/17 08:01:40;;;;;;;5.50;3.80;;;;;;;24.50;63.60;99634.16;5090843;28;20840;-65
2022/08/17 08:04:22;;;;;;;7.50;3.97;;;;;;;24.33;63.85;99643.88;5089204;28;20440;-65
2022/08/17 08:06:53;;;;;;;15.93;4.07;;;;;;;24.48;63.31;99648.19;5090680;28;20274;-63
2022/08/17 08:09:36;;;;;;;8.27;4.10;;;;;;;24.67;62.32;99652.44;5074347;28;20460;-63
2022/08/17 08:12:22;;;;;;;11.23;4.17;;;;;;;24.67;61.98;99701.50;5090461;28;20475;-63
2022/08/17 08:15:16;;;;;;;6.10;4.00;;;;;;;24.26;63.39;99693.06;5091145;28;20927;-63
2022/08/17 08:18:01;;;;;;;7.67;3.80;;;;;;;24.28;63.35;99704.97;5091857;28;20452;-63
2022/08/17 08:20:27;;;;;;;6.90;4.57;;;;;;;23.99;64.32;99697.97;5091252;28;20420;-63
2022/08/17 08:23:20;;;;;;;6.20;3.80;;;;;;;24.07;64.25;99693.75;5071852;28;20432;-63
2022/08/17 08:26:07;;;;;;;6.07;4.57;;;;;;;23.91;65.67;99693.56;5069468;28;20182;-63
2022/08/17 08:28:53;;;;;;;8.80;4.27;;;;;;;23.92;65.62;99694.34;5070917;28;20420;-63
2022/08/17 08:31:28;;;;;;;8.73;4.60;;;;;;;24.13;65.15;99689.13;5086664;28;20589;-64
2022/08/17 08:34:17;;;;;;;5.53;4.20;;;;;;;24.43;63.82;99677.53;5091052;28;20498;-64
2022/08/17 08:37:24;;;;;;;5.83;4.10;;;;;;;24.53;63.93;99665.00;5080072;28;20436;-64
2022/08/17 08:40:31;;;;;;;6.97;4.03;;;;;;;24.53;64.46;99734.28;5042281;28;20451;-64
2022/08/17 08:43:12;;;;;;;9.57;4.50;;;;;;;24.43;65.21;99723.72;5069485;28;20502;-64
2022/08/17 08:45:47;;;;;;;5.70;4.77;;;;;;;24.40;65.71;99721.72;5089844;28;20519;-64
2022/08/17 08:48:26;;;;;;;8.73;5.80;;;;;;;24.42;65.43;99713.44;5089255;28;20427;-64
2022/08/17 08:50:58;;;;;;;8.80;5.53;;;;;;;24.48;65.62;99705.91;5089685;28;20420;-64
2022/08/17 08:54:12;;;;;;;11.90;6.57;;;;;;;24.39;66.22;99665.22;5071817;28;20489;-64
2022/08/17 08:56:43;;;;;;;7.27;6.20;;;;;;;24.43;65.94;99671.75;5006938;28;21125;-64
2022/08/17 08:59:26;;;;;;;7.43;6.40;;;;;;;24.50;65.75;99740.09;4991346;28;20829;-64
2022/08/17 09:01:55;;;;;;;11.03;6.97;;;;;;;24.45;66.49;99738.53;5056929;28;20436;-64
2022/08/17 09:04:43;;;;;;;11.67;7.00;;;;;;;24.30;66.96;99730.50;5089791;28;20470;-64
2022/08/17 09:07:41;;;;;;;7.80;6.70;;;;;;;24.37;67.27;99760.09;5089354;28;20950;-64
2022/08/17 09:10:24;;;;;;;9.90;7.83;;;;;;;24.40;67.47;99759.22;5090433;28;20432;-64
2022/08/17 09:12:52;;;;;;;10.33;7.87;;;;;;;24.36;67.28;99764.22;5090326;28;20575;-64
2022/08/17 09:15:26;;;;;;;10.63;7.23;;;;;;;24.24;68.97;99764.78;5090055;28;20412;-64
2022/08/17 09:18:02;;;;;;;12.73;7.27;;;;;;;23.91;69.35;99785.00;5073188;28;20420;-64
2022/08/17 09:20:33;;;;;;;8.83;7.60;;;;;;;24.31;67.74;99782.03;5089734;28;20470;-64
2022/08/17 09:23:12;;;;;;;7.83;6.47;;;;;;;24.48;66.78;99789.59;5089817;28;20446;-64
2022/08/17 09:25:48;;;;;;;13.67;7.70;;;;;;;24.45;67.13;99801.19;5089334;28;20440;-64
2022/08/17 09:28:19;;;;;;;8.30;7.50;;;;;;;24.48;67.00;99814.78;5089712;28;20960;-64
2022/08/17 09:30:47;;;;;;;9.27;6.80;;;;;;;24.47;67.21;99828.38;5088825;28;20850;-64
2022/08/17 09:33:16;;;;;;;9.00;7.37;;;;;;;24.48;67.23;99832.09;5089305;28;20508;-64
2022/08/17 09:35:44;;;;;;;8.30;6.47;;;;;;;24.61;66.55;99839.78;5089416;28;20525;-64
2022/08/17 09:38:15;;;;;;;9.60;6.90;;;;;;;24.44;67.27;99855.22;5089339;28;20495;-64
2022/08/17 09:41:06;;;;;;;10.40;7.00;;;;;;;24.65;66.16;99857.03;5090698;28;20457;-64
2022/08/17 09:44:12;;;;;;;8.50;6.30;;;;;;;24.65;65.94;99872.31;5074552;28;20809;-64
2022/08/17 09:46:40;;;;;;;9.43;6.07;;;;;;;24.64;66.11;99875.63;5088898;28;20428;-65
2022/08/17 09:49:31;;;;;;;9.67;6.80;;;;;;;24.24;69.26;99894.63;5089733;28;20420;-65
2022/08/17 09:52:12;;;;;;;7.90;6.80;;;;;;;24.15;69.47;99905.88;5078496;28;20460;-65
2022/08/17 09:54:38;;;;;;;15.03;8.50;;;;;;;24.28;68.41;99912.72;5074451;28;20816;-65
2022/08/17 09:57:22;;;;;;;8.40;7.17;;;;;;;24.29;68.27;99913.53;5059979;28;20532;-65
2022/08/17 10:00:18;;;;;;;12.30;8.00;;;;;;;24.33;68.59;99920.91;5070494;28;20463;-64
2022/08/17 10:02:51;;;;;;;9.47;7.80;;;;;;;24.28;68.25;99918.47;5083516;28;20505;-64
2022/08/17 10:05:23;;;;;;;9.17;6.70;;;;;;;24.42;67.75;99906.78;5089217;28;20428;-64
2022/08/17 10:08:21;;;;;;;11.00;7.87;;;;;;;24.08;69.46;99903.03;5089254;28;20911;-64
2022/08/17 10:11:05;;;;;;;10.50;7.30;;;;;;;24.20;68.72;99907.47;5083526;28;20479;-65
2022/08/17 10:13:31;;;;;;;8.90;6.17;;;;;;;23.96;69.70;99915.13;5089707;28;20786;-64
2022/08/17 10:16:06;;;;;;;11.03;6.67;;;;;;;24.12;68.65;99918.25;5089250;28;20411;-65
2022/08/17 10:19:07;;;;;;;10.67;6.63;;;;;;;23.85;70.36;99923.03;5088539;28;20207;-65
2022/08/17 10:27:47;;;;;;;10.73;6.70;;;;;;;24.00;69.59;99898.63;5071685;28;20420;-64
2022/08/17 10:30:17;;;;;;;8.83;6.10;;;;;;;24.17;68.36;99905.41;5054178;28;20417;-64
2022/08/17 10:32:46;;;;;;;10.40;6.47;;;;;;;24.05;68.98;99908.84;5071198;28;20495;-64
2022/08/17 10:35:17;;;;;;;8.30;6.13;;;;;;;23.97;69.79;99907.28;5081251;28;20425;-64
2022/08/17 10:37:51;;;;;;;8.90;6.50;;;;;;;23.97;69.94;99907.28;5052357;28;20394;-64
2022/08/17 10:40:35;;;;;;;6.90;6.00;;;;;;;24.12;69.87;99908.75;5070364;28;20954;-64
2022/08/17 10:43:16;;;;;;;9.70;6.77;;;;;;;23.88;70.73;99901.97;5073620;28;20390;-64
2022/08/17 10:45:50;;;;;;;10.00;7.40;;;;;;;23.79;70.44;99895.88;5056435;28;20884;-64
2022/08/17 10:48:27;;;;;;;7.87;6.97;;;;;;;23.64;71.82;99893.59;5082396;28;21020;-64
2022/08/17 10:50:58;;;;;;;9.37;7.50;;;;;;;23.84;69.98;99881.00;5093575;28;20419;-65
2022/08/17 10:53:30;;;;;;;7.90;6.37;;;;;;;23.95;70.18;99876.00;5093465;28;20950;-64
2022/08/17 10:56:17;;;;;;;11.87;6.00;;;;;;;24.17;68.79;99873.69;5093592;28;20423;-64
2022/08/17 10:58:45;;;;;;;7.93;6.50;;;;;;;23.98;69.52;99869.38;5074990;28;20460;-64
2022/08/17 11:01:11;;;;;;;10.40;6.40;;;;;;;24.04;69.62;99856.09;5093513;28;20412;-64
2022/08/17 11:03:57;;;;;;;11.97;6.70;;;;;;;24.26;68.15;99869.06;5092042;28;20931;-64
2022/08/17 11:06:44;;;;;;;14.63;6.83;;;;;;;24.25;68.43;99849.28;5091848;28;20424;-64
2022/08/17 11:09:31;;;;;;;9.67;6.50;;;;;;;24.01;70.25;99844.63;5093299;28;20393;-65
2022/08/17 11:12:05;;;;;;;7.87;5.73;;;;;;;24.23;68.43;99848.91;5092389;28;20987;-65
2022/08/17 11:14:59;;;;;;;9.13;5.90;;;;;;;24.23;68.86;99832.41;5092079;28;20791;-65
2022/08/17 11:17:39;;;;;;;8.33;6.10;;;;;;;24.09;69.67;99806.59;5091675;28;20817;-65
2022/08/17 11:20:28;;;;;;;11.37;6.47;;;;;;;24.41;67.39;99781.06;5091952;28;20397;-65
2022/08/17 11:23:35;;;;;;;7.53;5.70;;;;;;;24.59;66.52;99775.84;5091876;28;20425;-65
2022/08/17 11:26:06;;;;;;;8.17;5.73;;;;;;;24.65;66.56;99764.66;5091861;28;20776;-65
2022/08/17 11:28:34;;;;;;;9.13;6.07;;;;;;;24.64;66.29;99760.94;5091335;28;20408;-65
2022/08/17 11:31:05;;;;;;;7.07;5.50;;;;;;;24.69;66.32;99748.91;5093034;28;20431;-65
2022/08/17 11:33:31;;;;;;;10.87;6.40;;;;;;;24.56;68.95;99747.84;5092728;28;21035;-65
2022/08/17 11:36:08;;;;;;;10.20;6.03;;;;;;;24.59;66.81;99749.06;5092887;28;20413;-65
2022/08/17 11:39:13;;;;;;;8.87;5.57;;;;;;;24.70;66.71;99772.81;5092671;28;20223;-65
2022/08/17 11:41:59;;;;;;;8.23;6.30;;;;;;;24.73;66.57;99800.84;5092826;28;20412;-64
2022/08/17 11:44:47;;;;;;;10.10;5.47;;;;;;;24.66;66.90;99792.25;5091474;28;20404;-64
2022/08/17 11:52:58;;;;;;;8.30;6.30;;;;;;;24.78;65.70;99795.38;5091911;28;20467;-64
2022/08/17 11:55:27;;;;;;;7.83;5.93;;;;;;;24.77;65.92;99795.81;5074397;28;20503;-64
2022/08/17 11:58:13;;;;;;;8.43;6.90;;;;;;;24.79;67.15;99793.31;5092161;28;20185;-64
2022/08/17 12:00:45;;;;;;;10.57;7.03;;;;;;;24.79;67.25;99805.66;5066382;28;20437;-64
2022/08/17 12:03:32;;;;;;;11.17;6.73;;;;;;;24.79;68.49;99814.31;5072002;28;20506;-64
2022/08/17 12:06:26;;;;;;;8.57;6.40;;;;;;;24.69;68.64;99806.63;5072058;28;20555;-64
2022/08/17 12:09:12;;;;;;;8.07;6.57;;;;;;;24.76;68.02;99809.44;5060957;28;20447;-64
2022/08/17 12:11:45;;;;;;;10.80;6.17;;;;;;;24.80;68.11;99807.31;5070247;28;20598;-64
2022/08/17 12:14:14;;;;;;;12.00;6.90;;;;;;;24.84;67.66;99805.19;5081273;28;20458;-64
2022/08/17 12:16:41;;;;;;;9.73;6.33;;;;;;;24.87;67.78;99791.94;5090580;28;20504;-64
2022/08/17 12:19:07;;;;;;;9.10;7.77;;;;;;;24.63;67.84;99785.28;5083969;28;20425;-64
2022/08/17 12:21:56;;;;;;;10.53;7.93;;;;;;;24.67;68.57;99782.34;5053700;28;20850;-64
2022/08/17 12:24:49;;;;;;;11.00;7.33;;;;;;;24.77;67.77;99785.09;5071502;28;20512;-64
2022/08/17 12:27:27;;;;;;;8.90;6.57;;;;;;;24.81;67.98;99785.03;5073270;28;20416;-64